createdAt,value
2023-05-18T00:00:46.752Z,58.32
2023-05-18T00:03:15.178Z,58.30
2023-05-18T00:05:43.836Z,58.34
2023-05-18T00:08:13.519Z,58.45
2023-05-18T00:10:42.468Z,58.28
2023-05-18T00:13:10.798Z,58.41
2023-05-18T00:15:39.094Z,58.63
2023-05-18T00:18:08.602Z,58.92
2023-05-18T00:20:36.934Z,58.95
2023-05-18T00:23:06.197Z,58.91
2023-05-18T00:25:35.864Z,58.91
2023-05-18T00:28:04.180Z,59.23
2023-05-18T00:30:32.514Z,59.73
2023-05-18T00:33:00.991Z,59.18
2023-05-18T00:35:29.609Z,59.05
2023-05-18T00:37:58.399Z,59.31
2023-05-18T00:40:29.159Z,59.42
2023-05-18T00:43:00.616Z,59.61
2023-05-18T00:45:29.526Z,59.59
2023-05-18T00:47:58.008Z,59.60
2023-05-18T00:50:26.632Z,59.83
2023-05-18T00:52:57.563Z,60.28
2023-05-18T00:55:28.001Z,59.99
2023-05-18T00:58:02.485Z,60.12
2023-05-18T01:00:30.954Z,60.01
2023-05-18T01:02:59.829Z,60.31
2023-05-18T01:05:28.670Z,60.61
2023-05-18T01:07:57.996Z,60.92
2023-05-18T01:10:26.623Z,61.20
2023-05-18T01:13:02.340Z,61.20
2023-05-18T01:15:36.533Z,61.17
2023-05-18T01:18:14.856Z,61.45
2023-05-18T01:20:48.844Z,61.73
2023-05-18T01:24:06.014Z,61.83
2023-05-18T01:26:38.126Z,61.60
2023-05-18T01:29:11.493Z,61.35
2023-05-18T01:31:40.200Z,61.02
2023-05-18T01:34:08.497Z,61.23
2023-05-18T01:36:36.857Z,61.48
2023-05-18T01:39:05.618Z,61.56
2023-05-18T01:41:39.748Z,61.00
2023-05-18T01:44:17.445Z,61.05
2023-05-18T01:46:59.165Z,60.82
2023-05-18T01:49:36.926Z,61.32
2023-05-18T01:52:09.585Z,61.45
2023-05-18T01:54:43.092Z,61.13
2023-05-18T01:57:13.823Z,61.25
2023-05-18T01:59:42.969Z,61.12
2023-05-18T02:02:12.788Z,61.45
2023-05-18T02:04:41.131Z,61.69
2023-05-18T02:07:09.800Z,61.55
2023-05-18T02:09:38.174Z,61.50
2023-05-18T02:12:07.836Z,61.69
2023-05-18T02:14:38.064Z,61.93
2023-05-18T02:17:07.172Z,62.04
2023-05-18T02:19:38.333Z,62.04
2023-05-18T02:22:08.250Z,62.45
2023-05-18T02:24:37.258Z,62.36
2023-05-18T02:27:07.290Z,62.58
2023-05-18T02:29:37.955Z,62.42
2023-05-18T02:32:06.685Z,62.55
2023-05-18T02:34:37.391Z,62.89
2023-05-18T02:37:06.070Z,62.43
2023-05-18T02:39:34.439Z,62.74
2023-05-18T02:42:02.762Z,62.50
2023-05-18T02:44:31.054Z,62.79
2023-05-18T02:47:00.706Z,62.84
2023-05-18T02:49:29.070Z,62.88
2023-05-18T02:51:57.572Z,62.94
2023-05-18T02:54:25.966Z,63.12
2023-05-18T02:56:57.013Z,62.98
2023-05-18T02:59:38.739Z,63.03
2023-05-18T03:02:08.614Z,63.07
2023-05-18T03:04:37.879Z,63.16
2023-05-18T03:07:08.052Z,63.28
2023-05-18T03:09:36.498Z,63.51
2023-05-18T03:12:05.981Z,63.30
2023-05-18T03:14:34.407Z,63.42
2023-05-18T03:17:06.168Z,63.23
2023-05-18T03:19:37.153Z,63.23
2023-05-18T03:22:06.018Z,63.35
2023-05-18T03:24:40.096Z,63.14
2023-05-18T03:27:13.048Z,62.98
2023-05-18T03:29:41.729Z,63.08
2023-05-18T03:32:10.179Z,62.90
2023-05-18T03:34:40.625Z,62.99
2023-05-18T03:37:09.119Z,62.76
2023-05-18T03:39:37.438Z,62.87
2023-05-18T03:42:06.930Z,62.87
2023-05-18T03:44:35.438Z,62.82
2023-05-18T03:47:04.696Z,62.97
2023-05-18T03:49:35.832Z,63.10
2023-05-18T03:52:06.673Z,62.75
2023-05-18T03:54:35.009Z,62.54
2023-05-18T03:57:03.282Z,62.63
2023-05-18T03:59:31.576Z,62.34
2023-05-18T04:02:00.212Z,62.84
2023-05-18T04:04:28.732Z,63.00
2023-05-18T04:06:57.143Z,62.67
2023-05-18T04:09:28.097Z,62.46
2023-05-18T04:11:56.633Z,62.36
2023-05-18T04:14:28.111Z,62.50
2023-05-18T04:16:58.344Z,62.39
2023-05-18T04:19:26.827Z,62.79
2023-05-18T04:21:55.214Z,62.68
2023-05-18T04:24:23.640Z,62.39
2023-05-18T04:26:53.407Z,62.31
2023-05-18T04:29:22.511Z,62.81
2023-05-18T04:31:51.114Z,62.91
2023-05-18T04:34:21.994Z,62.79
2023-05-18T04:36:50.638Z,63.12
2023-05-18T04:39:19.379Z,62.57
2023-05-18T04:41:47.803Z,62.59
2023-05-18T04:44:18.244Z,62.59
2023-05-18T04:46:47.511Z,62.92
2023-05-18T04:49:16.104Z,63.26
2023-05-18T04:51:44.428Z,63.11
2023-05-18T04:54:13.072Z,62.88
2023-05-18T04:56:41.416Z,63.41
2023-05-18T04:59:10.799Z,63.48
2023-05-18T05:01:40.614Z,63.62
2023-05-18T05:04:09.419Z,63.42
2023-05-18T05:06:37.938Z,63.63
2023-05-18T05:09:06.548Z,63.31
2023-05-18T05:11:34.976Z,63.27
2023-05-18T05:14:04.131Z,63.36
2023-05-18T05:16:32.813Z,63.71
2023-05-18T05:19:02.955Z,63.52
2023-05-18T05:21:31.677Z,63.15
2023-05-18T05:24:01.677Z,62.89
2023-05-18T05:26:30.188Z,63.26
2023-05-18T05:28:58.463Z,62.71
2023-05-18T05:31:26.830Z,62.41
2023-05-18T05:33:55.208Z,64.81
2023-05-18T05:36:25.013Z,65.43
2023-05-18T05:38:53.434Z,64.09
2023-05-18T05:41:22.745Z,64.22
2023-05-18T05:43:51.355Z,63.32
2023-05-18T05:46:19.910Z,62.89
2023-05-18T05:48:48.720Z,62.52
2023-05-18T05:51:17.766Z,62.42
2023-05-18T05:53:47.770Z,62.32
2023-05-18T05:56:18.178Z,62.53
2023-05-18T05:58:47.646Z,62.38
2023-05-18T06:01:15.944Z,61.92
2023-05-18T06:03:45.268Z,61.14
2023-05-18T06:06:14.723Z,61.00
2023-05-18T06:08:43.314Z,61.07
2023-05-18T06:11:13.598Z,59.82
2023-05-18T06:13:42.083Z,59.18
2023-05-18T06:16:10.577Z,58.27
2023-05-18T06:18:39.492Z,58.63
2023-05-18T06:21:08.092Z,58.69
2023-05-18T06:23:36.479Z,58.61
2023-05-18T06:26:22.255Z,58.81
2023-05-18T06:29:05.665Z,58.14
2023-05-18T06:31:49.455Z,61.68
2023-05-18T06:34:36.308Z,60.93
2023-05-18T06:37:05.296Z,59.85
2023-05-18T06:39:33.789Z,58.98
2023-05-18T06:42:04.042Z,61.17
2023-05-18T06:44:36.331Z,60.87
2023-05-18T06:47:19.049Z,59.36
2023-05-18T06:49:48.161Z,58.28
2023-05-18T06:52:17.251Z,58.53
2023-05-18T06:54:46.615Z,58.38
2023-05-18T06:57:17.208Z,57.37
2023-05-18T06:59:46.399Z,56.26
2023-05-18T07:02:14.780Z,55.70
2023-05-18T07:04:43.587Z,57.47
2023-05-18T07:07:11.995Z,59.88
2023-05-18T07:09:41.989Z,58.21
2023-05-18T07:12:10.777Z,57.91
2023-05-18T07:14:40.613Z,58.25
2023-05-18T07:17:08.987Z,56.94
2023-05-18T07:19:37.606Z,57.37
2023-05-18T07:22:07.590Z,60.32
2023-05-18T07:24:36.085Z,61.14
2023-05-18T07:27:04.898Z,61.89
2023-05-18T07:29:34.426Z,61.45
2023-05-18T07:32:04.516Z,59.28
2023-05-18T07:34:33.018Z,59.74
2023-05-18T07:37:01.401Z,59.26
2023-05-18T07:39:29.747Z,59.87
2023-05-18T07:41:58.366Z,58.29
2023-05-18T07:44:26.821Z,57.76
2023-05-18T07:46:55.424Z,57.87
2023-05-18T07:49:25.409Z,58.00
2023-05-18T07:51:54.087Z,58.56
2023-05-18T07:54:22.378Z,57.58
2023-05-18T07:56:50.728Z,57.96
2023-05-18T07:59:19.050Z,56.70
2023-05-18T08:01:49.238Z,57.09
2023-05-18T08:04:17.862Z,55.84
2023-05-18T08:06:47.648Z,55.41
2023-05-18T08:09:16.491Z,53.71
2023-05-18T08:11:45.357Z,54.74
2023-05-18T08:14:13.780Z,53.45
2023-05-18T08:16:42.145Z,52.72
2023-05-18T08:19:10.881Z,53.43
2023-05-18T08:21:39.456Z,51.94
2023-05-18T08:24:10.792Z,55.67
2023-05-18T08:26:39.681Z,56.75
2023-05-18T08:29:10.748Z,57.26
2023-05-18T08:31:40.334Z,55.49
2023-05-18T08:34:09.549Z,57.51
2023-05-18T08:36:38.817Z,56.11
2023-05-18T08:39:09.400Z,56.96
2023-05-18T08:41:42.663Z,58.19
2023-05-18T08:44:17.507Z,57.13
2023-05-18T08:46:48.534Z,55.84
2023-05-18T08:49:20.424Z,56.31
2023-05-18T08:51:53.202Z,57.38
2023-05-18T08:54:24.506Z,55.82
2023-05-18T08:56:55.016Z,56.50
2023-05-18T08:59:26.721Z,52.92
2023-05-18T09:01:55.668Z,55.63
2023-05-18T09:04:25.242Z,54.54
2023-05-18T09:06:56.407Z,53.32
2023-05-18T09:09:27.701Z,51.52
2023-05-18T09:11:57.621Z,50.32
2023-05-18T09:14:26.852Z,50.61
2023-05-18T09:16:55.837Z,50.89
2023-05-18T09:19:25.284Z,50.77
2023-05-18T09:21:53.794Z,50.69
2023-05-18T09:24:24.767Z,52.17
2023-05-18T09:26:54.860Z,51.98
2023-05-18T09:29:24.250Z,53.71
2023-05-18T09:31:54.224Z,53.44
2023-05-18T09:34:24.451Z,52.56
2023-05-18T09:36:54.035Z,51.67
2023-05-18T09:39:22.515Z,52.62
2023-05-18T09:41:58.458Z,53.56
2023-05-18T09:44:33.201Z,53.79
2023-05-18T09:47:01.932Z,55.70
2023-05-18T09:49:31.207Z,55.59
2023-05-18T09:52:00.189Z,54.67
2023-05-18T09:54:28.816Z,56.82
2023-05-18T09:57:10.468Z,55.86
2023-05-18T09:59:39.458Z,54.98
2023-05-18T10:02:09.009Z,52.44
2023-05-18T10:04:42.850Z,52.46
2023-05-18T10:07:13.644Z,56.18
2023-05-18T10:09:42.693Z,54.32
2023-05-18T10:12:17.583Z,55.00
2023-05-18T10:14:47.663Z,54.17
2023-05-18T10:17:17.689Z,52.27
2023-05-18T10:19:47.172Z,52.08
2023-05-18T10:22:19.585Z,51.64
2023-05-18T10:24:53.004Z,50.28
2023-05-18T10:27:28.691Z,50.62
2023-05-18T10:29:59.693Z,51.68
2023-05-18T10:32:31.601Z,51.54
2023-05-18T10:35:01.563Z,50.32
2023-05-18T10:37:31.864Z,47.60
2023-05-18T10:40:03.185Z,49.08
2023-05-18T10:42:33.745Z,47.41
2023-05-18T10:45:02.507Z,52.00
2023-05-18T10:47:32.194Z,53.10
2023-05-18T10:50:01.489Z,56.14
2023-05-18T10:52:32.808Z,55.65
2023-05-18T10:55:01.590Z,52.87
2023-05-18T10:57:38.372Z,52.09
2023-05-18T11:00:09.498Z,51.31
2023-05-18T11:02:42.581Z,52.10
2023-05-18T11:05:12.848Z,52.41
2023-05-18T11:07:41.665Z,54.85
2023-05-18T11:10:12.133Z,52.00
2023-05-18T11:12:43.060Z,52.85
2023-05-18T11:15:12.649Z,50.87
2023-05-18T11:17:41.181Z,50.31
2023-05-18T11:20:15.620Z,52.95
2023-05-18T11:22:48.200Z,53.39
2023-05-18T11:25:40.282Z,50.08
2023-05-18T11:28:13.441Z,50.52
2023-05-18T11:30:52.645Z,50.28
2023-05-18T11:33:28.265Z,49.80
2023-05-18T11:36:11.623Z,51.54
2023-05-18T11:38:54.854Z,49.11
2023-05-18T11:41:35.353Z,49.13
2023-05-18T11:44:19.407Z,48.04
2023-05-18T11:46:57.494Z,51.53
2023-05-18T11:49:28.482Z,50.26
2023-05-18T11:52:06.717Z,51.04
2023-05-18T11:54:39.707Z,52.98
2023-05-18T11:57:09.639Z,53.18
2023-05-18T11:59:42.951Z,51.43
2023-05-18T12:02:13.779Z,54.07
2023-05-18T12:04:46.814Z,55.61
2023-05-18T12:07:15.668Z,53.26
2023-05-18T12:09:47.069Z,51.94
2023-05-18T12:12:19.947Z,53.10
2023-05-18T12:14:56.204Z,56.02
2023-05-18T12:17:25.168Z,54.63
2023-05-18T12:19:53.667Z,53.34
2023-05-18T12:22:22.052Z,51.15
2023-05-18T12:24:53.978Z,51.05
2023-05-18T12:27:26.502Z,51.21
2023-05-18T12:29:56.510Z,49.94
2023-05-18T12:32:24.895Z,54.93
2023-05-18T12:34:53.433Z,49.46
2023-05-18T12:37:34.128Z,50.34
2023-05-18T12:40:13.269Z,49.34
2023-05-18T12:42:41.751Z,47.11
2023-05-18T12:45:12.778Z,49.96
2023-05-18T12:47:43.789Z,52.51
2023-05-18T12:50:12.534Z,54.08
2023-05-18T12:52:41.993Z,53.83
2023-05-18T12:55:11.578Z,54.35
2023-05-18T12:57:42.791Z,52.33
2023-05-18T13:00:15.254Z,52.19
2023-05-18T13:02:43.651Z,53.55
2023-05-18T13:05:13.532Z,52.00
2023-05-18T13:07:44.496Z,49.99
2023-05-18T13:10:17.729Z,53.97
2023-05-18T13:12:48.319Z,52.69
2023-05-18T13:15:20.641Z,52.35
2023-05-18T13:18:00.053Z,53.21
2023-05-18T13:20:36.283Z,51.53
2023-05-18T13:23:07.217Z,50.87
2023-05-18T13:25:35.742Z,53.79
2023-05-18T13:28:06.243Z,50.37
2023-05-18T13:30:36.268Z,51.81
2023-05-18T13:33:08.192Z,52.34
2023-05-18T13:35:37.187Z,50.50
2023-05-18T13:38:06.503Z,51.13
2023-05-18T13:40:34.819Z,48.93
2023-05-18T13:43:03.439Z,49.33
2023-05-18T13:45:32.077Z,48.72
2023-05-18T13:48:03.643Z,49.88
2023-05-18T13:50:32.284Z,48.69
2023-05-18T13:53:00.973Z,47.69
2023-05-18T13:55:29.662Z,48.38
2023-05-18T13:57:58.164Z,49.50
2023-05-18T14:00:27.172Z,48.16
2023-05-18T14:02:56.476Z,47.98
2023-05-18T14:05:26.847Z,48.93
2023-05-18T14:07:56.735Z,48.23
2023-05-18T14:10:25.277Z,47.97
2023-05-18T14:12:53.630Z,50.19
2023-05-18T14:15:22.050Z,49.81
2023-05-18T14:17:50.400Z,49.96
2023-05-18T14:20:19.774Z,50.92
2023-05-18T14:22:49.890Z,48.05
2023-05-18T14:25:18.479Z,47.16
2023-05-18T14:27:47.936Z,46.01
2023-05-18T14:30:16.387Z,45.53
2023-05-18T14:32:44.688Z,47.13
2023-05-18T14:35:13.101Z,46.73
2023-05-18T14:37:41.430Z,47.57
2023-05-18T14:40:12.265Z,46.47
2023-05-18T14:42:40.616Z,46.32
2023-05-18T14:45:10.836Z,45.29
2023-05-18T14:47:39.204Z,44.27
2023-05-18T14:50:08.958Z,43.64
2023-05-18T14:52:37.341Z,45.96
2023-05-18T14:55:06.428Z,48.95
2023-05-18T14:57:36.192Z,49.97
2023-05-18T15:00:05.461Z,50.17
2023-05-18T15:02:33.889Z,52.35
2023-05-18T15:05:02.499Z,52.16
2023-05-18T15:07:31.188Z,50.85
2023-05-18T15:09:59.686Z,51.52
2023-05-18T15:12:28.109Z,51.10
2023-05-18T15:14:58.234Z,50.28
2023-05-18T15:17:26.605Z,49.43
2023-05-18T15:19:54.920Z,49.53
2023-05-18T15:22:24.143Z,49.10
2023-05-18T15:24:52.616Z,49.53
2023-05-18T15:27:21.112Z,48.65
2023-05-18T15:29:49.466Z,48.85
2023-05-18T15:32:19.207Z,48.03
2023-05-18T15:34:47.517Z,48.20
2023-05-18T15:37:16.144Z,47.39
2023-05-18T15:39:44.453Z,47.35
2023-05-18T15:42:12.990Z,47.11
2023-05-18T15:44:41.336Z,46.98
2023-05-18T15:47:09.915Z,47.08
2023-05-18T15:49:39.703Z,47.24
2023-05-18T15:52:09.083Z,46.72
2023-05-18T15:54:37.753Z,46.73
2023-05-18T15:57:07.501Z,46.82
2023-05-18T15:59:35.950Z,47.46
2023-05-18T16:02:04.341Z,47.55
2023-05-18T16:04:33.013Z,47.30
2023-05-18T16:07:03.694Z,46.40
2023-05-18T16:09:31.854Z,46.72
2023-05-18T16:12:00.936Z,46.85
2023-05-18T16:14:29.420Z,46.56
2023-05-18T16:16:57.746Z,46.58
2023-05-18T16:19:26.190Z,47.01
2023-05-18T16:21:54.590Z,46.93
2023-05-18T16:24:24.270Z,46.57
2023-05-18T16:26:52.576Z,46.57
2023-05-18T16:29:20.954Z,46.77
2023-05-18T16:31:49.341Z,47.00
2023-05-18T16:34:17.734Z,46.81
2023-05-18T16:36:46.169Z,46.80
2023-05-18T16:39:14.532Z,46.60
2023-05-18T16:41:44.226Z,46.62
2023-05-18T16:44:12.555Z,46.39
2023-05-18T16:46:40.958Z,46.80
2023-05-18T16:49:09.557Z,46.49
2023-05-18T16:51:37.952Z,46.25
2023-05-18T16:54:06.908Z,46.89
2023-05-18T16:56:35.839Z,46.57
2023-05-18T16:59:05.581Z,46.79
2023-05-18T17:01:34.245Z,47.51
2023-05-18T17:04:02.718Z,46.34
2023-05-18T17:06:31.354Z,46.78
2023-05-18T17:08:59.695Z,46.06
2023-05-18T17:11:28.498Z,47.29
2023-05-18T17:13:57.833Z,46.95
2023-05-18T17:16:28.657Z,47.69
2023-05-18T17:18:57.703Z,47.28
2023-05-18T17:21:28.348Z,47.42
2023-05-18T17:23:56.832Z,49.40
2023-05-18T17:26:30.424Z,47.85
2023-05-18T17:28:58.947Z,47.42
2023-05-18T17:31:29.012Z,46.37
2023-05-18T17:33:57.486Z,46.22
2023-05-18T17:36:26.617Z,46.42
2023-05-18T17:38:56.209Z,46.07
2023-05-18T17:41:25.770Z,46.33
2023-05-18T17:43:54.628Z,46.66
2023-05-18T17:46:23.129Z,46.39
2023-05-18T17:48:53.101Z,47.46
2023-05-18T17:51:23.218Z,46.99
2023-05-18T17:53:51.837Z,46.07
2023-05-18T17:56:20.512Z,46.28
2023-05-18T17:58:48.926Z,46.33
2023-05-18T18:01:17.535Z,45.98
2023-05-18T18:03:46.014Z,46.31
2023-05-18T18:06:17.738Z,46.01
2023-05-18T18:08:46.177Z,46.13
2023-05-18T18:11:14.561Z,46.60
2023-05-18T18:13:43.068Z,47.74
2023-05-18T18:16:11.720Z,47.65
2023-05-18T18:18:40.518Z,47.13
2023-05-18T18:21:09.177Z,47.39
2023-05-18T18:23:40.189Z,47.15
2023-05-18T18:26:09.443Z,47.50
2023-05-18T18:28:37.799Z,47.68
2023-05-18T18:31:06.423Z,47.45
2023-05-18T18:33:34.998Z,47.23
2023-05-18T18:36:05.590Z,47.83
2023-05-18T18:38:34.341Z,47.94
2023-05-18T18:41:05.111Z,48.19
2023-05-18T18:43:35.181Z,48.30
2023-05-18T18:46:03.670Z,47.97
2023-05-18T18:48:32.186Z,47.81
2023-05-18T18:51:00.644Z,47.90
2023-05-18T18:53:29.052Z,47.79
2023-05-18T18:55:59.681Z,48.16
2023-05-18T18:58:29.338Z,48.31
2023-05-18T19:00:57.735Z,48.47
2023-05-18T19:03:27.374Z,48.07
2023-05-18T19:05:55.930Z,48.28
2023-05-18T19:08:24.348Z,48.18
2023-05-18T19:10:52.721Z,48.29
2023-05-18T19:13:21.165Z,48.30
2023-05-18T19:15:51.440Z,48.52
2023-05-18T19:18:19.874Z,48.82
2023-05-18T19:20:48.249Z,48.84
2023-05-18T19:23:16.686Z,48.87
2023-05-18T19:25:45.126Z,49.37
2023-05-18T19:28:13.626Z,49.31
2023-05-18T19:30:42.348Z,49.45
2023-05-18T19:33:12.311Z,49.39
2023-05-18T19:35:40.934Z,49.43
2023-05-18T19:38:09.675Z,49.62
2023-05-18T19:40:38.079Z,49.88
2023-05-18T19:43:06.522Z,50.14
2023-05-18T19:45:35.436Z,50.52
2023-05-18T19:48:04.494Z,50.08
2023-05-18T19:50:34.356Z,50.85
2023-05-18T19:53:02.799Z,50.36
2023-05-18T19:55:31.726Z,50.84
2023-05-18T19:58:00.417Z,51.10
2023-05-18T20:00:29.111Z,51.01
2023-05-18T20:02:57.557Z,51.11
2023-05-18T20:05:26.062Z,50.96
2023-05-18T20:07:55.949Z,51.31
2023-05-18T20:10:24.471Z,51.52
2023-05-18T20:12:52.917Z,51.59
2023-05-18T20:15:21.847Z,51.87
2023-05-18T20:17:50.280Z,52.56
2023-05-18T20:20:20.046Z,52.45
2023-05-18T20:22:48.603Z,52.63
2023-05-18T20:25:19.114Z,53.37
2023-05-18T20:27:47.544Z,53.23
2023-05-18T20:30:16.142Z,53.13
2023-05-18T20:32:44.852Z,53.43
2023-05-18T20:35:15.798Z,53.96
2023-05-18T20:37:44.388Z,54.33
2023-05-18T20:40:13.484Z,54.63
2023-05-18T20:42:43.515Z,54.87
2023-05-18T20:45:12.359Z,55.20
2023-05-18T20:47:41.839Z,55.54
2023-05-18T20:50:11.150Z,56.06
2023-05-18T20:52:39.490Z,56.45
2023-05-18T20:55:09.177Z,56.88
2023-05-18T20:57:38.420Z,57.29
2023-05-18T21:00:10.238Z,57.51
2023-05-18T21:02:39.201Z,57.96
2023-05-18T21:05:08.358Z,58.19
2023-05-18T21:07:39.984Z,58.57
2023-05-18T21:10:09.412Z,58.66
2023-05-18T21:12:37.987Z,58.92
2023-05-18T21:15:09.553Z,59.06
2023-05-18T21:17:37.919Z,59.80
2023-05-18T21:20:09.391Z,59.98
2023-05-18T21:22:37.787Z,60.57
2023-05-18T21:25:07.366Z,60.47
2023-05-18T21:27:37.211Z,60.91
2023-05-18T21:30:08.842Z,61.39
2023-05-18T21:32:37.875Z,61.63
2023-05-18T21:35:07.527Z,61.93
2023-05-18T21:37:35.999Z,62.03
2023-05-18T21:40:04.894Z,62.13
2023-05-18T21:42:33.708Z,62.71
2023-05-18T21:45:02.053Z,63.02
2023-05-18T21:47:31.911Z,62.90
2023-05-18T21:50:00.442Z,63.61
2023-05-18T21:52:28.937Z,63.55
2023-05-18T21:54:57.357Z,63.80
2023-05-18T21:57:26.122Z,64.04
2023-05-18T21:59:54.673Z,64.23
2023-05-18T22:02:24.463Z,64.49
2023-05-18T22:04:54.461Z,65.35
2023-05-18T22:07:22.940Z,65.08
2023-05-18T22:09:53.272Z,65.23
2023-05-18T22:12:23.536Z,65.37
2023-05-18T22:14:51.991Z,65.48
2023-05-18T22:17:20.357Z,65.96
2023-05-18T22:19:50.684Z,65.79
2023-05-18T22:22:30.116Z,66.72
2023-05-18T22:24:59.198Z,66.24
2023-05-18T22:27:27.648Z,66.48
2023-05-18T22:29:56.094Z,66.43
2023-05-18T22:32:24.738Z,66.36
2023-05-18T22:34:54.191Z,66.81
2023-05-18T22:37:23.954Z,67.17
2023-05-18T22:39:52.393Z,67.06
2023-05-18T22:42:21.309Z,67.11
2023-05-18T22:44:49.684Z,67.26
2023-05-18T22:47:20.085Z,67.46
2023-05-18T22:49:49.229Z,67.65
2023-05-18T22:52:17.915Z,68.16
2023-05-18T22:54:47.873Z,67.97
2023-05-18T22:57:16.253Z,68.08
2023-05-18T22:59:44.577Z,68.02
2023-05-18T23:02:13.271Z,68.14
2023-05-18T23:04:41.728Z,68.35
2023-05-18T23:07:10.077Z,68.37
2023-05-18T23:09:39.798Z,68.47
2023-05-18T23:12:11.661Z,68.42
2023-05-18T23:14:40.133Z,68.73
2023-05-18T23:17:08.812Z,68.59
2023-05-18T23:19:37.189Z,68.55
2023-05-18T23:22:05.830Z,68.62
2023-05-18T23:24:34.412Z,69.00
2023-05-18T23:27:02.824Z,68.97
2023-05-18T23:29:32.556Z,69.29
2023-05-18T23:32:01.005Z,69.55
2023-05-18T23:34:30.317Z,69.05
2023-05-18T23:37:04.044Z,69.37
2023-05-18T23:39:33.208Z,69.26
2023-05-18T23:42:02.711Z,69.32
2023-05-18T23:44:33.125Z,69.61
2023-05-18T23:47:02.886Z,68.87
2023-05-18T23:49:31.953Z,68.78
2023-05-18T23:52:04.214Z,68.91
2023-05-18T23:54:33.365Z,69.08
2023-05-18T23:57:03.215Z,69.35
2023-05-18T23:59:33.972Z,68.84
